createdAt,value
2022-10-31T00:00:51.516Z,4.93
2022-10-31T00:02:54.154Z,5.00
2022-10-31T00:04:58.062Z,5.38
2022-10-31T00:07:00.612Z,3.90
2022-10-31T00:09:05.398Z,5.53
2022-10-31T00:11:10.661Z,4.55
2022-10-31T00:13:14.552Z,4.05
2022-10-31T00:15:17.424Z,4.82
2022-10-31T00:17:20.308Z,4.45
2022-10-31T00:19:22.880Z,5.00
2022-10-31T00:21:27.442Z,4.40
2022-10-31T00:23:30.383Z,4.38
2022-10-31T00:25:36.306Z,5.40
2022-10-31T00:27:38.863Z,5.95
2022-10-31T00:29:41.543Z,6.35
2022-10-31T00:31:44.210Z,7.35
2022-10-31T00:33:46.806Z,8.32
2022-10-31T00:35:51.749Z,7.88
2022-10-31T00:37:55.697Z,8.40
2022-10-31T00:39:58.232Z,8.02
2022-10-31T00:42:00.830Z,7.47
2022-10-31T00:44:03.391Z,7.15
2022-10-31T00:46:06.485Z,6.07
2022-10-31T00:48:09.067Z,5.70
2022-10-31T00:50:11.634Z,5.20
2022-10-31T00:52:14.202Z,5.20
2022-10-31T00:54:18.152Z,5.60
2022-10-31T00:56:20.761Z,5.05
2022-10-31T00:58:23.350Z,5.88
2022-10-31T01:00:25.913Z,5.57
2022-10-31T01:02:28.728Z,5.45
2022-10-31T01:04:31.423Z,5.70
2022-10-31T01:06:34.115Z,4.80
2022-10-31T01:08:37.367Z,5.60
2022-10-31T01:10:41.279Z,5.75
2022-10-31T01:12:46.532Z,5.78
2022-10-31T01:14:49.147Z,4.43
2022-10-31T01:16:51.746Z,4.70
2022-10-31T01:18:54.402Z,5.35
2022-10-31T01:21:01.467Z,6.10
2022-10-31T01:23:04.025Z,5.03
2022-10-31T01:25:08.071Z,4.80
2022-10-31T01:27:12.030Z,5.00
2022-10-31T01:29:14.702Z,5.65
2022-10-31T01:31:19.069Z,5.03
2022-10-31T01:33:21.686Z,4.88
2022-10-31T01:35:24.262Z,5.35
2022-10-31T01:37:26.889Z,5.30
2022-10-31T01:39:29.458Z,5.35
2022-10-31T01:41:35.615Z,5.63
2022-10-31T01:43:52.550Z,5.63
2022-10-31T01:45:56.498Z,5.45
2022-10-31T01:47:59.542Z,5.20
2022-10-31T01:50:06.375Z,5.53
2022-10-31T01:52:14.178Z,4.95
2022-10-31T01:54:23.089Z,5.47
2022-10-31T01:56:26.221Z,4.72
2022-10-31T01:58:33.041Z,5.40
2022-10-31T02:00:36.946Z,5.18
2022-10-31T02:02:40.024Z,5.70
2022-10-31T02:04:43.649Z,6.05
2022-10-31T02:06:51.700Z,5.05
2022-10-31T02:08:55.523Z,5.07
2022-10-31T02:11:00.034Z,5.43
2022-10-31T02:13:05.253Z,4.68
2022-10-31T02:15:09.317Z,5.00
2022-10-31T02:17:13.252Z,5.18
2022-10-31T02:19:24.737Z,5.40
2022-10-31T02:21:36.354Z,5.10
2022-10-31T02:24:20.898Z,4.82
2022-10-31T02:26:43.615Z,4.75
2022-10-31T02:29:12.495Z,5.70
2022-10-31T02:31:27.393Z,4.95
2022-10-31T02:33:37.259Z,6.00
2022-10-31T02:35:44.967Z,5.10
2022-10-31T02:37:53.181Z,5.20
2022-10-31T02:40:04.190Z,5.47
2022-10-31T02:42:15.322Z,6.50
2022-10-31T02:44:25.817Z,6.05
2022-10-31T02:46:36.543Z,5.82
2022-10-31T02:48:42.942Z,6.07
2022-10-31T02:50:52.192Z,6.40
2022-10-31T02:52:55.524Z,5.60
2022-10-31T02:54:58.378Z,5.97
2022-10-31T02:57:06.119Z,5.30
2022-10-31T02:59:08.684Z,5.50
2022-10-31T03:01:23.270Z,5.45
2022-10-31T03:03:35.859Z,4.88
2022-10-31T03:05:49.818Z,6.22
2022-10-31T03:07:59.941Z,5.53
2022-10-31T03:10:11.546Z,5.28
2022-10-31T03:12:21.909Z,6.05
2022-10-31T03:14:30.218Z,5.45
2022-10-31T03:16:42.302Z,5.32
2022-10-31T03:18:52.346Z,5.30
2022-10-31T03:21:01.719Z,5.43
2022-10-31T03:23:07.609Z,5.07
2022-10-31T03:25:11.599Z,5.20
2022-10-31T03:27:18.302Z,6.03
2022-10-31T03:29:24.783Z,5.70
2022-10-31T03:31:31.430Z,5.65
2022-10-31T03:33:37.951Z,5.07
2022-10-31T03:35:46.982Z,4.68
2022-10-31T03:37:53.679Z,6.05
2022-10-31T03:39:58.655Z,5.50
2022-10-31T03:42:07.442Z,5.85
2022-10-31T03:44:14.487Z,5.25
2022-10-31T03:46:17.107Z,5.57
2022-10-31T03:48:22.593Z,5.13
2022-10-31T03:50:29.607Z,4.80
2022-10-31T03:52:38.835Z,5.32
2022-10-31T03:54:45.345Z,5.50
2022-10-31T03:56:54.161Z,5.85
2022-10-31T03:59:01.947Z,5.05
2022-10-31T04:01:08.003Z,6.40
2022-10-31T04:03:15.255Z,6.18
2022-10-31T04:05:20.037Z,5.07
2022-10-31T04:07:25.575Z,5.50
2022-10-31T04:09:33.618Z,5.18
2022-10-31T04:11:40.251Z,4.75
2022-10-31T04:13:46.271Z,5.82
2022-10-31T04:15:51.173Z,5.32
2022-10-31T04:17:58.039Z,5.53
2022-10-31T04:20:01.895Z,5.40
2022-10-31T04:22:04.548Z,5.30
2022-10-31T04:24:07.842Z,5.78
2022-10-31T04:26:13.746Z,5.05
2022-10-31T04:28:16.448Z,5.40
2022-10-31T04:30:19.110Z,6.03
2022-10-31T04:32:21.691Z,6.13
2022-10-31T04:34:24.284Z,5.53
2022-10-31T04:36:26.882Z,6.50
2022-10-31T04:38:29.476Z,7.60
2022-10-31T04:40:32.182Z,8.50
2022-10-31T04:42:36.110Z,8.93
2022-10-31T04:44:38.687Z,7.70
2022-10-31T04:46:41.275Z,6.78
2022-10-31T04:48:43.852Z,6.03
2022-10-31T04:50:46.390Z,7.07
2022-10-31T04:52:49.538Z,7.13
2022-10-31T04:54:52.118Z,5.95
2022-10-31T04:56:54.684Z,6.00
2022-10-31T04:58:58.618Z,6.28
2022-10-31T05:01:01.185Z,6.22
2022-10-31T05:03:04.003Z,5.50
2022-10-31T05:05:07.562Z,5.95
2022-10-31T05:07:10.150Z,5.78
2022-10-31T05:09:12.733Z,5.40
2022-10-31T05:11:15.293Z,4.65
2022-10-31T05:13:17.935Z,5.63
2022-10-31T05:15:24.366Z,5.70
2022-10-31T05:17:26.942Z,5.03
2022-10-31T05:19:29.594Z,4.72
2022-10-31T05:21:32.143Z,4.60
2022-10-31T05:23:34.734Z,4.93
2022-10-31T05:25:37.338Z,4.90
2022-10-31T05:27:41.590Z,5.05
2022-10-31T05:29:44.181Z,4.97
2022-10-31T05:31:48.115Z,5.15
2022-10-31T05:33:50.671Z,5.15
2022-10-31T05:35:53.236Z,5.55
2022-10-31T05:37:56.260Z,4.85
2022-10-31T05:40:01.199Z,4.93
2022-10-31T05:42:06.215Z,5.18
2022-10-31T05:44:08.906Z,5.88
2022-10-31T05:46:11.482Z,5.55
2022-10-31T05:48:15.383Z,5.15
2022-10-31T05:50:18.088Z,6.55
2022-10-31T05:52:21.001Z,5.20
2022-10-31T05:54:23.646Z,5.28
2022-10-31T05:56:26.217Z,6.05
2022-10-31T05:58:30.033Z,5.85
2022-10-31T06:00:32.955Z,8.40
2022-10-31T06:02:35.643Z,10.45
2022-10-31T06:04:39.650Z,9.73
2022-10-31T06:06:42.361Z,10.60
2022-10-31T06:08:45.205Z,9.27
2022-10-31T06:10:47.797Z,8.70
2022-10-31T06:12:50.858Z,7.00
2022-10-31T06:14:53.510Z,6.97
2022-10-31T06:16:56.138Z,6.32
2022-10-31T06:18:58.794Z,7.03
2022-10-31T06:21:02.729Z,6.32
2022-10-31T06:23:05.821Z,6.90
2022-10-31T06:25:09.137Z,6.68
2022-10-31T06:27:11.681Z,5.55
2022-10-31T06:29:14.260Z,5.72
2022-10-31T06:31:16.886Z,6.45
2022-10-31T06:33:19.452Z,6.20
2022-10-31T06:35:22.079Z,6.30
2022-10-31T06:37:26.006Z,6.25
2022-10-31T06:39:28.553Z,5.45
2022-10-31T06:41:31.154Z,6.22
2022-10-31T06:43:34.219Z,5.47
2022-10-31T06:45:36.781Z,5.43
2022-10-31T06:47:56.755Z,6.18
2022-10-31T06:50:01.907Z,5.47
2022-10-31T06:52:05.093Z,5.90
2022-10-31T06:54:09.059Z,4.55
2022-10-31T06:56:11.633Z,5.82
2022-10-31T06:58:14.165Z,5.80
2022-10-31T07:00:17.474Z,5.22
2022-10-31T07:02:20.187Z,5.15
2022-10-31T07:04:23.615Z,5.75
2022-10-31T07:06:26.238Z,5.90
2022-10-31T07:08:28.826Z,5.78
2022-10-31T07:10:39.086Z,5.60
2022-10-31T07:14:45.616Z,5.78
2022-10-31T07:16:51.162Z,5.35
2022-10-31T07:18:53.735Z,6.00
2022-10-31T07:20:56.786Z,5.55
2022-10-31T07:23:00.226Z,5.75
2022-10-31T07:25:03.120Z,6.00
2022-10-31T07:27:07.030Z,5.78
2022-10-31T07:29:09.723Z,5.68
2022-10-31T07:31:12.286Z,5.63
2022-10-31T07:33:14.854Z,5.18
2022-10-31T07:35:19.935Z,4.95
2022-10-31T07:37:22.499Z,6.72
2022-10-31T07:39:25.038Z,5.13
2022-10-31T07:41:27.757Z,6.00
2022-10-31T07:43:31.673Z,5.95
2022-10-31T07:45:34.241Z,6.03
2022-10-31T07:47:40.385Z,5.80
2022-10-31T07:49:42.946Z,5.38
2022-10-31T07:51:46.552Z,5.68
2022-10-31T07:53:49.332Z,5.38
2022-10-31T07:55:52.657Z,4.95
2022-10-31T07:57:59.946Z,5.30
2022-10-31T08:00:04.860Z,5.22
2022-10-31T08:02:07.945Z,6.25
2022-10-31T08:04:10.510Z,5.38
2022-10-31T08:06:13.079Z,5.90
2022-10-31T08:08:16.543Z,4.88
2022-10-31T08:10:19.203Z,4.45
2022-10-31T08:12:21.910Z,4.97
2022-10-31T08:14:24.498Z,5.38
2022-10-31T08:16:28.603Z,5.82
2022-10-31T08:18:31.955Z,4.63
2022-10-31T08:20:34.868Z,4.85
2022-10-31T08:22:42.871Z,5.72
2022-10-31T08:24:46.382Z,5.32
2022-10-31T08:26:49.214Z,5.38
2022-10-31T08:28:52.287Z,5.50
2022-10-31T08:30:54.863Z,5.78
2022-10-31T08:33:03.785Z,5.68
2022-10-31T08:35:06.903Z,5.43
2022-10-31T08:37:09.479Z,5.75
2022-10-31T08:39:12.071Z,5.15
2022-10-31T08:41:14.717Z,5.63
2022-10-31T08:43:18.995Z,4.88
2022-10-31T08:45:21.575Z,5.57
2022-10-31T08:47:24.177Z,5.88
2022-10-31T08:49:28.109Z,5.38
2022-10-31T08:51:30.674Z,5.88
2022-10-31T08:53:33.585Z,5.82
2022-10-31T08:55:37.672Z,5.40
2022-10-31T08:57:40.271Z,6.13
2022-10-31T08:59:42.837Z,5.75
2022-10-31T09:01:47.086Z,5.53
2022-10-31T09:03:49.753Z,5.35
2022-10-31T09:05:57.773Z,5.43
2022-10-31T09:08:02.138Z,6.13
2022-10-31T09:10:05.286Z,5.82
2022-10-31T09:12:07.921Z,6.93
2022-10-31T09:14:10.511Z,6.55
2022-10-31T09:16:13.135Z,5.47
2022-10-31T09:18:18.775Z,6.30
2022-10-31T09:20:21.577Z,5.55
2022-10-31T09:22:25.596Z,6.90
2022-10-31T09:24:28.132Z,5.75
2022-10-31T09:26:31.571Z,5.78
2022-10-31T09:28:34.239Z,5.20
2022-10-31T09:30:37.554Z,5.43
2022-10-31T09:32:40.125Z,5.22
2022-10-31T09:34:42.718Z,6.38
2022-10-31T09:36:46.914Z,5.88
2022-10-31T09:38:50.908Z,5.85
2022-10-31T09:41:00.088Z,6.53
2022-10-31T09:43:15.078Z,5.80
2022-10-31T09:45:22.362Z,5.70
2022-10-31T09:47:35.772Z,6.90
2022-10-31T09:49:53.256Z,6.38
2022-10-31T09:52:12.347Z,6.20
2022-10-31T09:54:20.610Z,6.10
2022-10-31T09:56:25.208Z,6.38
2022-10-31T09:58:31.273Z,6.07
2022-10-31T10:00:37.023Z,5.05
2022-10-31T10:02:47.301Z,5.43
2022-10-31T10:04:56.202Z,4.63
2022-10-31T10:07:00.941Z,4.55
2022-10-31T10:09:04.735Z,5.05
2022-10-31T10:11:26.865Z,5.05
2022-10-31T10:13:42.920Z,5.57
2022-10-31T10:16:01.647Z,5.50
2022-10-31T10:18:14.397Z,4.65
2022-10-31T10:20:27.696Z,5.40
2022-10-31T10:22:38.408Z,5.50
2022-10-31T10:24:56.810Z,6.85
2022-10-31T10:27:12.135Z,7.00
2022-10-31T10:29:34.942Z,6.55
2022-10-31T10:31:42.280Z,6.80
2022-10-31T10:33:54.986Z,6.55
2022-10-31T10:36:01.429Z,6.30
2022-10-31T10:38:16.753Z,6.15
2022-10-31T10:40:22.909Z,6.05
2022-10-31T10:42:46.443Z,7.07
2022-10-31T10:45:09.624Z,6.18
2022-10-31T10:47:30.084Z,6.32
2022-10-31T10:49:37.813Z,6.03
2022-10-31T10:51:58.201Z,6.20
2022-10-31T10:54:15.727Z,7.22
2022-10-31T10:56:23.766Z,5.97
2022-10-31T10:58:27.694Z,6.13
2022-10-31T11:00:33.528Z,6.30
2022-10-31T11:02:36.168Z,6.22
2022-10-31T11:04:42.428Z,6.50
2022-10-31T11:06:45.086Z,6.28
2022-10-31T11:08:50.720Z,5.80
2022-10-31T11:11:00.946Z,6.95
2022-10-31T11:13:08.694Z,6.00
2022-10-31T11:15:22.623Z,6.28
2022-10-31T11:17:31.938Z,5.97
2022-10-31T11:19:34.514Z,6.30
2022-10-31T11:21:37.082Z,7.15
2022-10-31T11:23:39.647Z,7.30
2022-10-31T11:25:50.371Z,6.53
2022-10-31T11:28:01.404Z,5.28
2022-10-31T11:30:08.771Z,5.43
2022-10-31T11:32:21.526Z,5.43
2022-10-31T11:34:31.853Z,6.22
2022-10-31T11:36:37.746Z,5.85
2022-10-31T11:38:43.583Z,5.50
2022-10-31T11:40:55.418Z,6.05
2022-10-31T11:45:08.172Z,6.53
2022-10-31T11:47:16.362Z,7.45
2022-10-31T11:49:25.575Z,6.95
2022-10-31T11:51:31.130Z,6.03
2022-10-31T11:53:35.920Z,6.65
2022-10-31T11:55:40.786Z,6.28
2022-10-31T11:57:46.355Z,6.40
2022-10-31T11:59:53.446Z,5.38
2022-10-31T12:01:57.810Z,6.40
2022-10-31T12:04:08.191Z,5.28
2022-10-31T12:06:18.795Z,6.28
2022-10-31T12:08:22.021Z,4.60
2022-10-31T12:10:33.092Z,5.05
2022-10-31T12:12:45.725Z,5.47
2022-10-31T12:14:58.228Z,5.00
2022-10-31T12:17:08.956Z,4.53
2022-10-31T12:19:21.012Z,5.28
2022-10-31T12:21:40.292Z,4.95
2022-10-31T12:23:56.878Z,4.80
2022-10-31T12:26:11.680Z,4.97
2022-10-31T12:28:44.869Z,5.22
2022-10-31T12:31:01.304Z,4.78
2022-10-31T12:33:22.313Z,5.07
2022-10-31T12:35:46.308Z,5.30
2022-10-31T12:38:05.304Z,5.40
2022-10-31T12:40:29.926Z,5.85
2022-10-31T12:42:50.535Z,4.93
2022-10-31T12:45:20.045Z,5.05
2022-10-31T12:47:41.217Z,5.10
2022-10-31T12:49:56.285Z,4.93
2022-10-31T12:52:11.102Z,4.32
2022-10-31T12:54:30.257Z,4.72
2022-10-31T12:56:46.651Z,4.55
2022-10-31T12:58:55.467Z,5.30
2022-10-31T13:01:09.199Z,5.93
2022-10-31T13:03:23.364Z,4.80
2022-10-31T13:05:32.082Z,4.63
2022-10-31T13:07:44.198Z,4.85
2022-10-31T13:09:57.205Z,4.75
2022-10-31T13:12:06.295Z,4.72
2022-10-31T13:14:16.248Z,5.35
2022-10-31T13:16:21.658Z,5.18
2022-10-31T13:18:32.128Z,5.28
2022-10-31T13:20:40.742Z,5.03
2022-10-31T13:22:46.643Z,5.05
2022-10-31T13:24:57.648Z,6.15
2022-10-31T13:27:03.371Z,5.57
2022-10-31T13:29:15.567Z,5.28
2022-10-31T13:31:18.262Z,5.45
2022-10-31T13:33:26.957Z,6.65
2022-10-31T13:35:36.507Z,5.07
2022-10-31T13:37:43.429Z,5.78
2022-10-31T13:40:07.872Z,5.38
2022-10-31T13:42:22.184Z,5.90
2022-10-31T13:44:26.851Z,5.15
2022-10-31T13:46:38.582Z,5.47
2022-10-31T13:50:58.181Z,4.55
2022-10-31T13:53:20.862Z,5.53
2022-10-31T13:55:42.862Z,5.07
2022-10-31T13:59:54.929Z,5.18
2022-10-31T14:01:59.032Z,5.90
2022-10-31T14:04:14.929Z,5.47
2022-10-31T14:06:25.090Z,4.95
2022-10-31T14:08:27.816Z,6.03
2022-10-31T14:10:33.061Z,4.78
2022-10-31T14:12:40.360Z,5.65
2022-10-31T14:14:49.889Z,5.22
2022-10-31T14:16:58.639Z,4.50
2022-10-31T14:19:04.206Z,5.00
2022-10-31T14:21:17.202Z,4.78
2022-10-31T14:23:41.145Z,4.82
2022-10-31T14:25:43.746Z,4.82
2022-10-31T14:27:49.049Z,4.75
2022-10-31T14:29:51.894Z,5.50
2022-10-31T14:31:57.431Z,4.90
2022-10-31T14:34:00.558Z,5.57
2022-10-31T14:36:10.320Z,5.93
2022-10-31T14:38:46.411Z,5.50
2022-10-31T14:41:03.136Z,5.10
2022-10-31T14:43:35.645Z,4.75
2022-10-31T14:45:48.603Z,4.88
2022-10-31T14:48:06.985Z,5.10
2022-10-31T14:50:32.584Z,4.93
2022-10-31T14:52:38.157Z,4.63
2022-10-31T14:54:46.244Z,5.82
2022-10-31T14:56:52.707Z,5.45
2022-10-31T14:58:59.776Z,6.30
2022-10-31T15:01:02.579Z,5.20
2022-10-31T15:03:16.370Z,5.00
2022-10-31T15:05:20.173Z,4.78
2022-10-31T15:07:25.394Z,4.57
2022-10-31T15:09:30.858Z,4.72
2022-10-31T15:11:39.509Z,4.65
2022-10-31T15:13:47.404Z,5.20
2022-10-31T15:15:52.955Z,6.05
2022-10-31T15:17:59.726Z,4.88
2022-10-31T15:20:02.840Z,4.57
2022-10-31T15:22:06.074Z,4.90
2022-10-31T15:24:16.711Z,4.72
2022-10-31T15:26:21.855Z,4.40
2022-10-31T15:28:26.569Z,5.10
2022-10-31T15:30:31.022Z,4.68
2022-10-31T15:32:35.503Z,4.50
2022-10-31T15:34:41.710Z,4.88
2022-10-31T15:36:44.354Z,5.32
2022-10-31T15:38:47.054Z,5.50
2022-10-31T15:40:56.396Z,5.25
2022-10-31T15:43:02.307Z,4.40
2022-10-31T15:45:18.141Z,4.55
2022-10-31T15:47:23.314Z,5.47
2022-10-31T15:49:36.168Z,7.95
2022-10-31T15:51:39.783Z,8.75
2022-10-31T15:53:46.909Z,9.10
2022-10-31T15:55:54.179Z,7.57
2022-10-31T15:58:00.116Z,10.77
2022-10-31T16:00:03.084Z,11.60
2022-10-31T16:02:12.221Z,16.65
2022-10-31T16:04:24.284Z,17.83
2022-10-31T16:06:28.502Z,16.70
2022-10-31T16:08:35.500Z,16.92
2022-10-31T16:10:38.149Z,16.48
2022-10-31T16:12:47.927Z,26.30
2022-10-31T16:14:51.897Z,33.70
2022-10-31T16:16:57.395Z,33.35
2022-10-31T16:19:02.421Z,30.25
2022-10-31T16:21:06.376Z,30.35
2022-10-31T16:23:18.443Z,29.50
2022-10-31T16:25:27.917Z,28.88
2022-10-31T16:27:33.090Z,29.60
2022-10-31T16:29:45.424Z,30.75
2022-10-31T16:31:47.951Z,29.17
2022-10-31T16:33:50.576Z,29.55
2022-10-31T16:36:04.112Z,28.95
2022-10-31T16:38:12.291Z,25.75
2022-10-31T16:40:17.121Z,24.30
2022-10-31T16:42:19.701Z,22.98
2022-10-31T16:44:25.043Z,21.08
2022-10-31T16:46:29.141Z,19.80
2022-10-31T16:48:31.757Z,19.73
2022-10-31T16:50:35.024Z,18.65
2022-10-31T16:52:38.601Z,17.23
2022-10-31T16:54:56.209Z,17.60
2022-10-31T16:57:01.853Z,17.92
2022-10-31T16:59:12.066Z,16.48
2022-10-31T17:01:18.062Z,17.88
2022-10-31T17:03:20.962Z,17.33
2022-10-31T17:05:29.953Z,16.48
2022-10-31T17:07:32.558Z,15.45
2022-10-31T17:09:35.134Z,14.52
2022-10-31T17:11:37.968Z,14.38
2022-10-31T17:13:42.036Z,14.25
2022-10-31T17:15:47.828Z,14.57
2022-10-31T17:17:50.754Z,36.88
2022-10-31T17:19:53.320Z,30.92
2022-10-31T17:21:55.981Z,26.80
2022-10-31T17:23:58.549Z,18.15
2022-10-31T17:26:01.433Z,22.02
2022-10-31T17:28:04.840Z,23.25
2022-10-31T17:30:10.192Z,21.52
2022-10-31T17:32:12.855Z,22.00
2022-10-31T17:34:15.406Z,17.58
2022-10-31T17:36:18.071Z,15.35
2022-10-31T17:38:20.683Z,16.75
2022-10-31T17:40:23.417Z,16.25
2022-10-31T17:42:26.101Z,14.25
2022-10-31T17:44:28.831Z,13.68
2022-10-31T17:46:32.761Z,16.10
2022-10-31T17:48:37.257Z,16.63
2022-10-31T17:50:40.077Z,16.63
2022-10-31T17:52:42.664Z,19.52
2022-10-31T17:54:45.251Z,18.20
2022-10-31T17:56:47.827Z,16.95
2022-10-31T17:58:50.402Z,17.15
2022-10-31T18:00:52.945Z,15.90
2022-10-31T18:02:57.043Z,14.82
2022-10-31T18:05:02.171Z,15.35
2022-10-31T18:07:05.576Z,14.77
2022-10-31T18:09:10.513Z,15.85
2022-10-31T18:11:16.905Z,16.40
2022-10-31T18:13:19.446Z,17.00
2022-10-31T18:15:22.185Z,17.70
2022-10-31T18:17:24.781Z,26.48
2022-10-31T18:19:28.707Z,41.13
2022-10-31T18:21:31.822Z,33.88
2022-10-31T18:23:34.482Z,34.03
2022-10-31T18:25:38.791Z,41.10
2022-10-31T18:27:41.352Z,42.85
2022-10-31T18:29:44.105Z,37.80
2022-10-31T18:31:48.460Z,51.58
2022-10-31T18:33:53.622Z,41.25
2022-10-31T18:35:57.923Z,44.05
2022-10-31T18:38:03.113Z,48.40
2022-10-31T18:40:07.026Z,59.53
2022-10-31T18:42:09.554Z,70.57
2022-10-31T18:44:12.143Z,54.05
2022-10-31T18:46:17.088Z,54.92
2022-10-31T18:48:19.639Z,56.78
2022-10-31T18:50:23.471Z,50.22
2022-10-31T18:52:27.414Z,50.05
2022-10-31T18:54:30.230Z,43.00
2022-10-31T18:56:32.870Z,39.45
2022-10-31T18:58:35.770Z,36.05
2022-10-31T19:00:38.529Z,35.40
2022-10-31T19:02:41.237Z,44.13
2022-10-31T19:04:43.797Z,37.95
2022-10-31T19:06:46.368Z,35.95
2022-10-31T19:08:50.290Z,40.30
2022-10-31T19:10:52.880Z,40.40
2022-10-31T19:12:55.426Z,33.63
2022-10-31T19:14:58.046Z,32.58
2022-10-31T19:17:02.335Z,20.55
2022-10-31T19:19:05.349Z,18.73
2022-10-31T19:21:09.044Z,16.10
2022-10-31T19:23:11.608Z,15.35
2022-10-31T19:25:15.677Z,13.52
2022-10-31T19:27:18.242Z,13.35
2022-10-31T19:29:20.800Z,12.68
2022-10-31T19:31:23.960Z,12.50
2022-10-31T19:33:33.411Z,13.73
2022-10-31T19:35:38.659Z,11.88
2022-10-31T19:37:42.384Z,12.23
2022-10-31T19:39:45.048Z,10.63
2022-10-31T19:41:48.957Z,9.93
2022-10-31T19:43:51.706Z,10.10
2022-10-31T19:45:55.705Z,11.07
2022-10-31T19:47:58.776Z,11.07
2022-10-31T19:50:01.510Z,10.77
2022-10-31T19:52:04.105Z,12.20
2022-10-31T19:54:07.208Z,12.90
2022-10-31T19:56:12.924Z,11.57
2022-10-31T19:58:16.968Z,11.43
2022-10-31T20:00:19.874Z,10.23
2022-10-31T20:02:22.474Z,9.90
2022-10-31T20:04:25.115Z,9.38
2022-10-31T20:06:29.744Z,10.35
2022-10-31T20:08:37.042Z,9.82
2022-10-31T20:10:41.975Z,9.77
2022-10-31T20:12:44.537Z,8.70
2022-10-31T20:14:50.282Z,9.15
2022-10-31T20:16:54.390Z,9.43
2022-10-31T20:18:59.439Z,9.77
2022-10-31T20:21:05.009Z,9.68
2022-10-31T20:23:07.832Z,9.20
2022-10-31T20:25:10.383Z,9.02
2022-10-31T20:27:12.935Z,9.85
2022-10-31T20:29:16.814Z,9.35
2022-10-31T20:31:27.412Z,10.32
2022-10-31T20:33:29.973Z,10.68
2022-10-31T20:35:32.502Z,13.65
2022-10-31T20:37:35.117Z,11.77
2022-10-31T20:39:37.790Z,11.82
2022-10-31T20:41:40.364Z,10.73
2022-10-31T20:43:43.001Z,12.70
2022-10-31T20:45:45.609Z,11.65
2022-10-31T20:47:49.511Z,11.45
2022-10-31T20:49:52.119Z,10.63
2022-10-31T20:51:54.651Z,9.63
2022-10-31T20:53:58.935Z,9.55
2022-10-31T20:56:06.953Z,9.70
2022-10-31T20:58:10.205Z,9.25
2022-10-31T21:00:18.543Z,9.98
2022-10-31T21:02:21.209Z,10.27
2022-10-31T21:04:25.409Z,12.05
2022-10-31T21:06:29.329Z,11.75
2022-10-31T21:08:32.887Z,13.30
2022-10-31T21:10:35.478Z,12.55
2022-10-31T21:12:40.467Z,12.65
2022-10-31T21:14:43.096Z,11.82
2022-10-31T21:16:45.718Z,10.68
2022-10-31T21:18:50.249Z,11.50
2022-10-31T21:20:54.390Z,11.48
2022-10-31T21:22:56.981Z,11.98
2022-10-31T21:25:00.960Z,11.63
2022-10-31T21:27:08.452Z,10.35
2022-10-31T21:29:15.322Z,11.20
2022-10-31T21:31:18.942Z,10.38
2022-10-31T21:33:21.522Z,11.07
2022-10-31T21:35:24.235Z,11.82
2022-10-31T21:37:28.168Z,11.32
2022-10-31T21:39:30.796Z,10.55
2022-10-31T21:41:33.420Z,11.05
2022-10-31T21:43:36.845Z,12.32
2022-10-31T21:45:39.503Z,10.23
2022-10-31T21:47:42.211Z,10.50
2022-10-31T21:49:45.391Z,9.55
2022-10-31T21:51:48.031Z,10.88
2022-10-31T21:54:09.698Z,9.50
2022-10-31T21:56:12.341Z,10.50
2022-10-31T21:58:14.963Z,10.25
2022-10-31T22:00:18.021Z,9.70
2022-10-31T22:02:20.703Z,10.52
2022-10-31T22:04:23.562Z,9.98
2022-10-31T22:06:27.350Z,10.50
2022-10-31T22:08:30.224Z,11.15
2022-10-31T22:10:34.829Z,10.95
2022-10-31T22:12:38.976Z,10.93
2022-10-31T22:16:45.560Z,10.52
2022-10-31T22:18:48.717Z,10.52
2022-10-31T22:20:51.370Z,10.52
2022-10-31T22:22:54.059Z,10.95
2022-10-31T22:24:56.798Z,9.77
2022-10-31T22:27:00.766Z,10.27
2022-10-31T22:29:05.625Z,14.38
2022-10-31T22:31:09.002Z,12.93
2022-10-31T22:33:11.655Z,11.77
2022-10-31T22:35:14.242Z,10.98
2022-10-31T22:37:19.724Z,10.13
2022-10-31T22:39:22.617Z,11.68
2022-10-31T22:41:27.044Z,9.95
2022-10-31T22:43:30.962Z,10.30
2022-10-31T22:45:33.504Z,10.70
2022-10-31T22:47:36.097Z,11.25
2022-10-31T22:49:38.681Z,10.75
2022-10-31T22:51:42.199Z,12.10
2022-10-31T22:53:45.175Z,11.90
2022-10-31T22:55:50.166Z,10.48
2022-10-31T22:57:52.761Z,11.57
2022-10-31T22:59:56.658Z,10.57
2022-10-31T23:01:59.386Z,11.27
2022-10-31T23:04:02.780Z,11.48
2022-10-31T23:06:07.356Z,11.40
2022-10-31T23:08:09.949Z,10.98
2022-10-31T23:10:14.577Z,12.23
2022-10-31T23:12:31.108Z,11.75
2022-10-31T23:14:33.813Z,11.88
2022-10-31T23:16:39.167Z,12.82
2022-10-31T23:18:50.226Z,12.15
2022-10-31T23:20:53.354Z,11.63
2022-10-31T23:22:56.931Z,12.50
2022-10-31T23:24:59.564Z,12.38
2022-10-31T23:27:09.613Z,12.02
2022-10-31T23:29:11.322Z,12.32
2022-10-31T23:33:17.947Z,12.48
2022-10-31T23:35:20.938Z,12.43
2022-10-31T23:37:25.871Z,11.82
2022-10-31T23:39:28.555Z,11.93
2022-10-31T23:41:31.244Z,11.40
2022-10-31T23:43:33.833Z,11.00
2022-10-31T23:45:36.530Z,10.10
2022-10-31T23:47:43.237Z,10.40
2022-10-31T23:49:47.545Z,11.32
2022-10-31T23:51:50.241Z,11.48
2022-10-31T23:53:52.920Z,11.43
2022-10-31T23:55:55.991Z,11.18
2022-10-31T23:57:58.615Z,11.35
